Portada
METAR-TAF:

METAR-TAF

Aeropuertos :

Aeropuerto Internacional de Irkutsk

Irkutsk, Rusia

latitud: 52-16N, longitud: 104-19E, altitud: 513 m

Observación

El informe se hizo hace 31 minutos, a las 03:00 UTC
Viento 2 kt con dirección variable
Temperatura 3°C
Humedad 70%
Presión 1014 hPa
Visibilidad 10 km o más
sin nubes por debajo de 1500 m y sin presencia de cumulonimbus.

METAR: UIII 220300Z VRB01MPS CAVOK 03/M02 Q1014 R12/60D NOSIG RMK QFE718/0958

Hora: 11:31 (03:31 UTC)

Pronóstico

El informe se hizo hace 1 hora y 31 minutos, a las 02:00 UTC
Pronóstico válido del 22 a las 03 UTC al 23 a las 03 UTC
Viento 6 kt del sureste
Visibilidad 10 km o más

TAF: UIII 220200Z 2203/2303 14003MPS 9999 NSC

Observaciones y pronósticos meteorológicos de más de 4000 aeropuertos (mensajes METAR y TAF).

Los puntos amarillos y rojos representan las estaciones disponibles.

Ponga el ratón en el punto deseado para ver el nombre de la estación.

Haga clic para ver las observaciones y los pronósticos meteorológicos.

Para cambiar el mapa : haga clic en los botones verdes con una cruz de color negro para hacer un zoom, en el botón verde con un guión para alejar o en las flechas verdes para mapas adyacentes.


METAR-TAF: